Shikarpur Weather



Shikarpur's Current Weather

Temprature 39.94o overcast clouds

overcast clouds

Rain: 0 %

Min Temprature39.94o
Max Temprature39.94o
Humidity32
Wind Speed6.7 m/h
Sun Rise05:43:29
Sun Set19:20:05
Current Time: 24-Jul-2021 15:39:17
Lat/Lon: 27.9571, 68.6379




Shikarpur's Geo Location



Shikarpur's Weather Forecast

Time Overall Temp Min Temp Max Temp Humidity Wind Speed Rain
24-Jul-2021 (Sat)
17:00:00 overcast clouds 39.940 38.570 39.940 33 6.05 m/h 0 %
20:00:00 overcast clouds 39.240 37.850 39.240 33 4.46 m/h 0 %
23:00:00 overcast clouds 37.370 36.080 37.370 37 4.79 m/h 0 %
25-Jul-2021 (Sun)
02:00:00 clear sky 34.410 34.410 34.410 42 3.07 m/h 0 %
05:00:00 clear sky 32.860 32.860 32.860 51 3.37 m/h 0 %
08:00:00 clear sky 36.040 36.040 36.040 42 3.32 m/h 0 %
11:00:00 clear sky 42.560 42.560 42.560 25 4.31 m/h 0 %
14:00:00 clear sky 45.940 45.940 45.940 19 4.23 m/h 0 %
17:00:00 scattered clouds 45.670 45.670 45.670 18 6.13 m/h 0 %
20:00:00 overcast clouds 41.400 41.400 41.400 26 6.68 m/h 0 %
23:00:00 overcast clouds 37.050 37.050 37.050 43 7.36 m/h 0 %
26-Jul-2021 (Mon)
02:00:00 broken clouds 33.840 33.840 33.840 52 6.99 m/h 0 %
05:00:00 broken clouds 32.140 32.140 32.140 59 6.04 m/h 0 %
08:00:00 overcast clouds 34.130 34.130 34.130 51 4.27 m/h 0 %
11:00:00 overcast clouds 40.650 40.650 40.650 32 3.93 m/h 0 %
14:00:00 overcast clouds 44.720 44.720 44.720 24 5.21 m/h 0 %
17:00:00 broken clouds 44.450 44.450 44.450 24 6.01 m/h 0 %
20:00:00 broken clouds 39.630 39.630 39.630 34 7.41 m/h 0 %
23:00:00 broken clouds 34.570 34.570 34.570 51 8.21 m/h 0 %
27-Jul-2021 (Tue)
02:00:00 overcast clouds 32.110 32.110 32.110 60 6.11 m/h 0 %
05:00:00 overcast clouds 30.930 30.930 30.930 65 5.32 m/h 0 %
08:00:00 overcast clouds 32.490 32.490 32.490 59 4.68 m/h 0 %
11:00:00 overcast clouds 38.430 38.430 38.430 41 3.92 m/h 0 %
14:00:00 overcast clouds 42.150 42.150 42.150 32 4.91 m/h 0 %
17:00:00 overcast clouds 41.820 41.820 41.820 32 5.76 m/h 0 %
20:00:00 overcast clouds 36.140 36.140 36.140 45 8.2 m/h 0 %
23:00:00 overcast clouds 32.440 32.440 32.440 58 7.05 m/h 0 %
28-Jul-2021 (Wed)
02:00:00 overcast clouds 30.840 30.840 30.840 65 4.87 m/h 0 %
05:00:00 overcast clouds 30.270 30.270 30.270 67 4.4 m/h 0 %
08:00:00 broken clouds 32.220 32.220 32.220 59 3.57 m/h 0 %
11:00:00 broken clouds 38.200 38.200 38.200 40 3.2 m/h 0 %
14:00:00 overcast clouds 42.830 42.830 42.830 30 3.58 m/h 0 %
17:00:00 broken clouds 43.630 43.630 43.630 28 5.49 m/h 0 %
20:00:00 broken clouds 38.630 38.630 38.630 39 8.08 m/h 0 %
23:00:00 light rain 33.610 33.610 33.610 55 6.16 m/h 54 %
29-Jul-2021 (Thu)
02:00:00 light rain 31.890 31.890 31.890 61 5.23 m/h 42 %
05:00:00 overcast clouds 30.720 30.720 30.720 65 3.78 m/h 0 %
08:00:00 scattered clouds 32.330 32.330 32.330 59 3.92 m/h 0 %
11:00:00 broken clouds 38.000 38.000 38.000 41 3.78 m/h 0 %
14:00:00 overcast clouds 42.390 42.390 42.390 30 4.21 m/h 0 %

Famous Cities (60)